Terminal Aerodrome Forecast
Issued by NWS Wilmington, OH

Current Version | Previous Version | Graphics & Text | Print | Product List | Glossary On
Versions: 1 2 3 4 5 6 7 8 9 10 11 12 13 14 15 16 17 18 19 20 21 22 23 24 25 26 27 28 29 30
000
FTUS41 KILN 281410 AAA
TAFILN
TAF AMD
KILN 281410Z 2814/2912 06006KT 3SM BR OVC004
      TEMPO 2814/2816 1/4SM FG VV002
     FM281600 14006KT 4SM BR OVC007
     FM281700 VRB04KT P6SM OVC012
     FM281900 29006KT P6SM VCTS BKN018CB OVC040
     FM282300 31007KT P6SM BKN040
     FM290400 36004KT P6SM OVC007
     FM290800 32003KT 3SM BR OVC004=

USA.gov is the U.S. government's official web portal to all federal, state and local government web resources and services.